sensor_id;sensor_type;location;lat;lon;timestamp;P1;durP1;ratioP1;P2;durP2;ratioP2
30173;SDS011;16985;50.814;8.530;2023-08-31T00:01:49;17.88;;;8.85;;
30173;SDS011;16985;50.814;8.530;2023-08-31T00:04:17;12.13;;;7.93;;
30173;SDS011;16985;50.814;8.530;2023-08-31T00:06:43;12.00;;;7.82;;
30173;SDS011;16985;50.814;8.530;2023-08-31T00:09:11;15.40;;;7.72;;
30173;SDS011;16985;50.814;8.530;2023-08-31T00:11:37;12.35;;;7.10;;
30173;SDS011;16985;50.814;8.530;2023-08-31T00:14:03;7.22;;;6.22;;
30173;SDS011;16985;50.814;8.530;2023-08-31T00:16:29;9.85;;;7.03;;
30173;SDS011;16985;50.814;8.530;2023-08-31T00:18:56;11.07;;;6.60;;
30173;SDS011;16985;50.814;8.530;2023-08-31T00:21:22;6.82;;;5.82;;
30173;SDS011;16985;50.814;8.530;2023-08-31T00:23:48;8.77;;;6.07;;
30173;SDS011;16985;50.814;8.530;2023-08-31T00:26:14;7.10;;;6.05;;
30173;SDS011;16985;50.814;8.530;2023-08-31T00:28:42;11.65;;;6.50;;
30173;SDS011;16985;50.814;8.530;2023-08-31T00:31:09;11.05;;;6.45;;
30173;SDS011;16985;50.814;8.530;2023-08-31T00:33:37;8.02;;;5.80;;
30173;SDS011;16985;50.814;8.530;2023-08-31T00:36:03;9.93;;;6.43;;
30173;SDS011;16985;50.814;8.530;2023-08-31T00:38:33;10.50;;;6.10;;
30173;SDS011;16985;50.814;8.530;2023-08-31T00:40:59;11.40;;;6.32;;
30173;SDS011;16985;50.814;8.530;2023-08-31T00:43:25;8.93;;;5.68;;
30173;SDS011;16985;50.814;8.530;2023-08-31T00:45:51;7.70;;;5.40;;
30173;SDS011;16985;50.814;8.530;2023-08-31T00:48:24;7.60;;;5.00;;
30173;SDS011;16985;50.814;8.530;2023-08-31T00:50:50;8.57;;;5.60;;
30173;SDS011;16985;50.814;8.530;2023-08-31T00:53:16;7.63;;;5.90;;
30173;SDS011;16985;50.814;8.530;2023-08-31T00:55:46;6.63;;;4.95;;
30173;SDS011;16985;50.814;8.530;2023-08-31T00:58:12;7.70;;;5.68;;
30173;SDS011;16985;50.814;8.530;2023-08-31T01:00:46;8.02;;;5.50;;
30173;SDS011;16985;50.814;8.530;2023-08-31T01:06:45;10.02;;;6.05;;
30173;SDS011;16985;50.814;8.530;2023-08-31T01:09:30;7.93;;;5.00;;
30173;SDS011;16985;50.814;8.530;2023-08-31T01:12:09;8.95;;;6.38;;
30173;SDS011;16985;50.814;8.530;2023-08-31T01:14:38;17.02;;;5.57;;
30173;SDS011;16985;50.814;8.530;2023-08-31T01:17:12;9.27;;;5.65;;
30173;SDS011;16985;50.814;8.530;2023-08-31T01:24:57;6.80;;;4.90;;
30173;SDS011;16985;50.814;8.530;2023-08-31T01:27:29;8.63;;;5.40;;
30173;SDS011;16985;50.814;8.530;2023-08-31T01:29:58;8.93;;;5.28;;
30173;SDS011;16985;50.814;8.530;2023-08-31T01:32:24;12.38;;;5.20;;
30173;SDS011;16985;50.814;8.530;2023-08-31T01:34:50;7.45;;;4.80;;
30173;SDS011;16985;50.814;8.530;2023-08-31T01:37:18;9.80;;;5.32;;
30173;SDS011;16985;50.814;8.530;2023-08-31T01:39:57;7.38;;;4.55;;
30173;SDS011;16985;50.814;8.530;2023-08-31T01:42:29;12.45;;;4.35;;
30173;SDS011;16985;50.814;8.530;2023-08-31T01:44:56;9.90;;;4.45;;
30173;SDS011;16985;50.814;8.530;2023-08-31T01:47:24;11.90;;;4.75;;
30173;SDS011;16985;50.814;8.530;2023-08-31T01:49:51;8.23;;;4.40;;
30173;SDS011;16985;50.814;8.530;2023-08-31T01:52:17;6.45;;;4.43;;
30173;SDS011;16985;50.814;8.530;2023-08-31T01:54:43;6.82;;;4.05;;
30173;SDS011;16985;50.814;8.530;2023-08-31T01:57:10;6.97;;;4.03;;
30173;SDS011;16985;50.814;8.530;2023-08-31T01:59:55;11.25;;;5.38;;
30173;SDS011;16985;50.814;8.530;2023-08-31T02:02:21;10.32;;;4.55;;
30173;SDS011;16985;50.814;8.530;2023-08-31T02:04:46;9.00;;;5.25;;
30173;SDS011;16985;50.814;8.530;2023-08-31T02:07:12;13.02;;;5.38;;
30173;SDS011;16985;50.814;8.530;2023-08-31T02:09:38;6.53;;;4.30;;
30173;SDS011;16985;50.814;8.530;2023-08-31T02:12:04;5.68;;;4.10;;
30173;SDS011;16985;50.814;8.530;2023-08-31T02:14:30;5.45;;;4.20;;
30173;SDS011;16985;50.814;8.530;2023-08-31T02:16:56;7.63;;;4.43;;
30173;SDS011;16985;50.814;8.530;2023-08-31T02:19:22;13.32;;;5.75;;
30173;SDS011;16985;50.814;8.530;2023-08-31T02:21:48;12.38;;;5.40;;
30173;SDS011;16985;50.814;8.530;2023-08-31T02:24:13;8.00;;;5.10;;
30173;SDS011;16985;50.814;8.530;2023-08-31T02:26:39;12.98;;;5.03;;
30173;SDS011;16985;50.814;8.530;2023-08-31T02:29:05;6.72;;;5.10;;
30173;SDS011;16985;50.814;8.530;2023-08-31T02:31:32;8.35;;;6.07;;
30173;SDS011;16985;50.814;8.530;2023-08-31T02:33:57;13.82;;;6.43;;
30173;SDS011;16985;50.814;8.530;2023-08-31T02:36:24;11.57;;;6.07;;
30173;SDS011;16985;50.814;8.530;2023-08-31T02:38:50;12.80;;;6.82;;
30173;SDS011;16985;50.814;8.530;2023-08-31T02:41:18;12.17;;;6.73;;
30173;SDS011;16985;50.814;8.530;2023-08-31T02:43:43;9.48;;;6.35;;
30173;SDS011;16985;50.814;8.530;2023-08-31T02:46:10;12.15;;;6.63;;
30173;SDS011;16985;50.814;8.530;2023-08-31T02:48:35;9.82;;;7.07;;
30173;SDS011;16985;50.814;8.530;2023-08-31T02:51:01;11.07;;;7.03;;
30173;SDS011;16985;50.814;8.530;2023-08-31T02:53:31;11.25;;;6.88;;
30173;SDS011;16985;50.814;8.530;2023-08-31T02:55:57;9.02;;;6.38;;
30173;SDS011;16985;50.814;8.530;2023-08-31T02:58:23;8.23;;;6.20;;
30173;SDS011;16985;50.814;8.530;2023-08-31T03:00:50;8.48;;;6.07;;
30173;SDS011;16985;50.814;8.530;2023-08-31T03:03:16;11.60;;;5.65;;
30173;SDS011;16985;50.814;8.530;2023-08-31T03:05:43;9.85;;;5.80;;
30173;SDS011;16985;50.814;8.530;2023-08-31T03:08:09;15.07;;;5.97;;
30173;SDS011;16985;50.814;8.530;2023-08-31T03:10:36;14.55;;;6.78;;
30173;SDS011;16985;50.814;8.530;2023-08-31T03:13:03;11.80;;;6.53;;
30173;SDS011;16985;50.814;8.530;2023-08-31T03:15:29;8.63;;;5.88;;
30173;SDS011;16985;50.814;8.530;2023-08-31T03:17:57;11.50;;;5.75;;
30173;SDS011;16985;50.814;8.530;2023-08-31T03:20:23;9.40;;;5.35;;
30173;SDS011;16985;50.814;8.530;2023-08-31T03:22:49;6.80;;;4.90;;
30173;SDS011;16985;50.814;8.530;2023-08-31T03:25:16;7.03;;;5.95;;
30173;SDS011;16985;50.814;8.530;2023-08-31T03:27:42;9.27;;;5.93;;
30173;SDS011;16985;50.814;8.530;2023-08-31T03:30:08;13.55;;;6.32;;
30173;SDS011;16985;50.814;8.530;2023-08-31T03:32:35;8.13;;;6.00;;
30173;SDS011;16985;50.814;8.530;2023-08-31T03:35:04;13.15;;;5.75;;
30173;SDS011;16985;50.814;8.530;2023-08-31T03:37:31;8.75;;;5.43;;
30173;SDS011;16985;50.814;8.530;2023-08-31T03:39:57;8.65;;;5.55;;
30173;SDS011;16985;50.814;8.530;2023-08-31T03:42:23;12.57;;;7.38;;
30173;SDS011;16985;50.814;8.530;2023-08-31T03:44:48;13.23;;;5.60;;
30173;SDS011;16985;50.814;8.530;2023-08-31T03:47:15;8.85;;;5.82;;
30173;SDS011;16985;50.814;8.530;2023-08-31T03:49:41;8.43;;;6.45;;
30173;SDS011;16985;50.814;8.530;2023-08-31T03:52:07;10.13;;;5.85;;
30173;SDS011;16985;50.814;8.530;2023-08-31T03:54:33;8.68;;;6.53;;
30173;SDS011;16985;50.814;8.530;2023-08-31T03:56:59;8.05;;;5.53;;
30173;SDS011;16985;50.814;8.530;2023-08-31T03:59:25;8.23;;;5.20;;
30173;SDS011;16985;50.814;8.530;2023-08-31T04:01:50;17.63;;;5.82;;
30173;SDS011;16985;50.814;8.530;2023-08-31T04:04:16;10.80;;;6.03;;
30173;SDS011;16985;50.814;8.530;2023-08-31T04:06:42;10.93;;;6.30;;
30173;SDS011;16985;50.814;8.530;2023-08-31T04:09:08;10.13;;;5.63;;
30173;SDS011;16985;50.814;8.530;2023-08-31T04:11:34;12.85;;;6.60;;
30173;SDS011;16985;50.814;8.530;2023-08-31T04:13:59;9.15;;;5.53;;
30173;SDS011;16985;50.814;8.530;2023-08-31T04:16:26;12.65;;;6.07;;
30173;SDS011;16985;50.814;8.530;2023-08-31T04:18:54;8.02;;;5.13;;
30173;SDS011;16985;50.814;8.530;2023-08-31T04:21:20;7.78;;;5.72;;
30173;SDS011;16985;50.814;8.530;2023-08-31T04:23:46;11.95;;;5.70;;
30173;SDS011;16985;50.814;8.530;2023-08-31T04:26:12;7.45;;;5.50;;
30173;SDS011;16985;50.814;8.530;2023-08-31T04:28:39;9.07;;;6.53;;
30173;SDS011;16985;50.814;8.530;2023-08-31T04:31:09;7.60;;;5.47;;
30173;SDS011;16985;50.814;8.530;2023-08-31T04:33:37;8.45;;;4.90;;
30173;SDS011;16985;50.814;8.530;2023-08-31T04:36:04;8.85;;;5.35;;
30173;SDS011;16985;50.814;8.530;2023-08-31T04:38:30;9.43;;;5.32;;
30173;SDS011;16985;50.814;8.530;2023-08-31T04:41:00;11.35;;;5.30;;
30173;SDS011;16985;50.814;8.530;2023-08-31T04:43:27;10.30;;;5.70;;
30173;SDS011;16985;50.814;8.530;2023-08-31T04:45:53;9.48;;;4.95;;
30173;SDS011;16985;50.814;8.530;2023-08-31T04:48:19;7.97;;;4.65;;
30173;SDS011;16985;50.814;8.530;2023-08-31T04:50:45;9.77;;;5.15;;
30173;SDS011;16985;50.814;8.530;2023-08-31T04:53:11;13.00;;;4.95;;
30173;SDS011;16985;50.814;8.530;2023-08-31T04:55:37;17.42;;;6.47;;
30173;SDS011;16985;50.814;8.530;2023-08-31T04:58:04;9.60;;;4.78;;
30173;SDS011;16985;50.814;8.530;2023-08-31T05:00:30;9.30;;;5.55;;
30173;SDS011;16985;50.814;8.530;2023-08-31T05:02:56;9.75;;;4.70;;
30173;SDS011;16985;50.814;8.530;2023-08-31T05:05:22;10.50;;;5.25;;
30173;SDS011;16985;50.814;8.530;2023-08-31T05:07:47;8.32;;;5.60;;
30173;SDS011;16985;50.814;8.530;2023-08-31T05:10:13;9.23;;;5.07;;
30173;SDS011;16985;50.814;8.530;2023-08-31T05:12:39;7.53;;;4.75;;
30173;SDS011;16985;50.814;8.530;2023-08-31T05:15:05;8.43;;;4.80;;
30173;SDS011;16985;50.814;8.530;2023-08-31T05:17:32;9.80;;;4.38;;
30173;SDS011;16985;50.814;8.530;2023-08-31T05:19:57;9.50;;;5.22;;
30173;SDS011;16985;50.814;8.530;2023-08-31T05:22:23;7.18;;;4.05;;
30173;SDS011;16985;50.814;8.530;2023-08-31T05:24:49;8.63;;;4.40;;
30173;SDS011;16985;50.814;8.530;2023-08-31T05:27:15;13.02;;;5.47;;
30173;SDS011;16985;50.814;8.530;2023-08-31T05:29:41;11.10;;;4.97;;
30173;SDS011;16985;50.814;8.530;2023-08-31T05:32:07;10.45;;;4.40;;
30173;SDS011;16985;50.814;8.530;2023-08-31T05:34:32;9.55;;;4.50;;
30173;SDS011;16985;50.814;8.530;2023-08-31T05:37:03;5.88;;;4.60;;
30173;SDS011;16985;50.814;8.530;2023-08-31T05:39:30;9.10;;;5.00;;
30173;SDS011;16985;50.814;8.530;2023-08-31T05:41:56;4.53;;;3.45;;
30173;SDS011;16985;50.814;8.530;2023-08-31T05:44:22;6.20;;;3.58;;
30173;SDS011;16985;50.814;8.530;2023-08-31T05:46:48;5.53;;;3.20;;
30173;SDS011;16985;50.814;8.530;2023-08-31T05:49:14;4.18;;;3.05;;
30173;SDS011;16985;50.814;8.530;2023-08-31T05:51:39;5.50;;;3.63;;
30173;SDS011;16985;50.814;8.530;2023-08-31T05:54:05;9.15;;;3.83;;
30173;SDS011;16985;50.814;8.530;2023-08-31T05:56:37;4.13;;;3.53;;
30173;SDS011;16985;50.814;8.530;2023-08-31T05:59:06;5.72;;;3.55;;
30173;SDS011;16985;50.814;8.530;2023-08-31T06:01:33;6.90;;;3.42;;
30173;SDS011;16985;50.814;8.530;2023-08-31T06:06:28;6.47;;;3.33;;
30173;SDS011;16985;50.814;8.530;2023-08-31T06:08:54;8.05;;;3.53;;
30173;SDS011;16985;50.814;8.530;2023-08-31T06:11:21;3.92;;;3.03;;
30173;SDS011;16985;50.814;8.530;2023-08-31T06:13:47;4.88;;;3.05;;
30173;SDS011;16985;50.814;8.530;2023-08-31T06:16:13;6.93;;;3.25;;
30173;SDS011;16985;50.814;8.530;2023-08-31T06:18:39;8.15;;;3.20;;
30173;SDS011;16985;50.814;8.530;2023-08-31T06:21:05;8.25;;;3.33;;
30173;SDS011;16985;50.814;8.530;2023-08-31T06:23:30;6.90;;;3.20;;
30173;SDS011;16985;50.814;8.530;2023-08-31T06:25:56;5.88;;;3.20;;
30173;SDS011;16985;50.814;8.530;2023-08-31T06:28:22;4.72;;;2.90;;
30173;SDS011;16985;50.814;8.530;2023-08-31T06:30:48;3.80;;;2.97;;
30173;SDS011;16985;50.814;8.530;2023-08-31T06:33:14;4.07;;;2.92;;
30173;SDS011;16985;50.814;8.530;2023-08-31T06:35:40;8.23;;;4.00;;
30173;SDS011;16985;50.814;8.530;2023-08-31T06:38:06;4.03;;;3.25;;
30173;SDS011;16985;50.814;8.530;2023-08-31T06:40:32;5.25;;;4.07;;
30173;SDS011;16985;50.814;8.530;2023-08-31T06:42:58;5.72;;;3.42;;
30173;SDS011;16985;50.814;8.530;2023-08-31T06:45:24;7.53;;;3.30;;
30173;SDS011;16985;50.814;8.530;2023-08-31T06:47:50;4.78;;;3.40;;
30173;SDS011;16985;50.814;8.530;2023-08-31T06:50:16;5.53;;;3.30;;
30173;SDS011;16985;50.814;8.530;2023-08-31T06:52:42;7.53;;;3.95;;
30173;SDS011;16985;50.814;8.530;2023-08-31T06:55:09;4.90;;;3.28;;
30173;SDS011;16985;50.814;8.530;2023-08-31T06:57:36;6.85;;;3.28;;
30173;SDS011;16985;50.814;8.530;2023-08-31T07:00:02;4.90;;;3.40;;
30173;SDS011;16985;50.814;8.530;2023-08-31T07:02:31;8.13;;;3.75;;
30173;SDS011;16985;50.814;8.530;2023-08-31T07:04:56;10.45;;;4.07;;
30173;SDS011;16985;50.814;8.530;2023-08-31T07:07:22;8.60;;;4.28;;
30173;SDS011;16985;50.814;8.530;2023-08-31T07:09:48;8.50;;;3.78;;
30173;SDS011;16985;50.814;8.530;2023-08-31T07:12:14;8.75;;;3.72;;
30173;SDS011;16985;50.814;8.530;2023-08-31T07:14:40;8.73;;;4.00;;
30173;SDS011;16985;50.814;8.530;2023-08-31T07:17:06;4.32;;;3.55;;
30173;SDS011;16985;50.814;8.530;2023-08-31T07:19:31;5.03;;;3.38;;
30173;SDS011;16985;50.814;8.530;2023-08-31T07:22:02;7.07;;;3.30;;
30173;SDS011;16985;50.814;8.530;2023-08-31T07:24:29;6.82;;;3.90;;
30173;SDS011;16985;50.814;8.530;2023-08-31T07:26:55;9.10;;;4.03;;
30173;SDS011;16985;50.814;8.530;2023-08-31T07:29:21;9.32;;;5.20;;
30173;SDS011;16985;50.814;8.530;2023-08-31T07:31:47;10.65;;;3.70;;
30173;SDS011;16985;50.814;8.530;2023-08-31T07:34:12;6.43;;;3.38;;
30173;SDS011;16985;50.814;8.530;2023-08-31T07:36:38;4.30;;;3.30;;
30173;SDS011;16985;50.814;8.530;2023-08-31T07:39:04;11.40;;;4.20;;
30173;SDS011;16985;50.814;8.530;2023-08-31T07:41:31;5.13;;;3.55;;
30173;SDS011;16985;50.814;8.530;2023-08-31T07:43:56;5.68;;;4.03;;
30173;SDS011;16985;50.814;8.530;2023-08-31T07:46:23;6.20;;;3.83;;
30173;SDS011;16985;50.814;8.530;2023-08-31T07:48:49;11.35;;;4.25;;
30173;SDS011;16985;50.814;8.530;2023-08-31T07:51:15;7.55;;;4.25;;
30173;SDS011;16985;50.814;8.530;2023-08-31T07:53:41;5.60;;;3.38;;
30173;SDS011;16985;50.814;8.530;2023-08-31T07:56:07;6.75;;;3.92;;
30173;SDS011;16985;50.814;8.530;2023-08-31T07:58:33;10.02;;;4.32;;
30173;SDS011;16985;50.814;8.530;2023-08-31T08:00:59;7.07;;;4.25;;
30173;SDS011;16985;50.814;8.530;2023-08-31T08:03:24;4.50;;;3.40;;
30173;SDS011;16985;50.814;8.530;2023-08-31T08:05:51;12.93;;;4.65;;
30173;SDS011;16985;50.814;8.530;2023-08-31T08:08:17;5.57;;;4.30;;
30173;SDS011;16985;50.814;8.530;2023-08-31T08:10:43;8.82;;;4.30;;
30173;SDS011;16985;50.814;8.530;2023-08-31T08:13:09;7.65;;;3.90;;
30173;SDS011;16985;50.814;8.530;2023-08-31T08:15:35;5.90;;;3.75;;
30173;SDS011;16985;50.814;8.530;2023-08-31T08:18:01;10.70;;;4.68;;
30173;SDS011;16985;50.814;8.530;2023-08-31T08:20:27;8.73;;;4.03;;
30173;SDS011;16985;50.814;8.530;2023-08-31T08:22:54;5.78;;;3.05;;
30173;SDS011;16985;50.814;8.530;2023-08-31T08:25:20;12.23;;;3.50;;
30173;SDS011;16985;50.814;8.530;2023-08-31T08:27:47;4.10;;;3.22;;
30173;SDS011;16985;50.814;8.530;2023-08-31T08:30:13;4.88;;;3.67;;
30173;SDS011;16985;50.814;8.530;2023-08-31T08:32:44;5.40;;;3.50;;
30173;SDS011;16985;50.814;8.530;2023-08-31T08:35:10;8.48;;;3.20;;
30173;SDS011;16985;50.814;8.530;2023-08-31T08:37:35;6.55;;;3.20;;
30173;SDS011;16985;50.814;8.530;2023-08-31T08:40:01;8.45;;;3.30;;
30173;SDS011;16985;50.814;8.530;2023-08-31T08:42:29;4.30;;;3.07;;
30173;SDS011;16985;50.814;8.530;2023-08-31T08:44:58;4.75;;;3.45;;
30173;SDS011;16985;50.814;8.530;2023-08-31T08:47:26;5.15;;;3.47;;
30173;SDS011;16985;50.814;8.530;2023-08-31T08:49:53;4.63;;;3.53;;
30173;SDS011;16985;50.814;8.530;2023-08-31T08:52:20;6.83;;;3.87;;
30173;SDS011;16985;50.814;8.530;2023-08-31T08:54:47;8.85;;;4.15;;
30173;SDS011;16985;50.814;8.530;2023-08-31T08:57:15;6.18;;;3.50;;
30173;SDS011;16985;50.814;8.530;2023-08-31T08:59:40;3.85;;;3.17;;
30173;SDS011;16985;50.814;8.530;2023-08-31T09:02:07;8.30;;;3.55;;
30173;SDS011;16985;50.814;8.530;2023-08-31T09:04:35;7.80;;;4.45;;
30173;SDS011;16985;50.814;8.530;2023-08-31T09:07:01;4.65;;;3.17;;
30173;SDS011;16985;50.814;8.530;2023-08-31T09:09:27;5.97;;;3.40;;
30173;SDS011;16985;50.814;8.530;2023-08-31T09:11:53;5.63;;;3.55;;
30173;SDS011;16985;50.814;8.530;2023-08-31T09:14:21;6.10;;;3.80;;
30173;SDS011;16985;50.814;8.530;2023-08-31T09:16:48;8.10;;;3.78;;
30173;SDS011;16985;50.814;8.530;2023-08-31T09:19:19;5.10;;;3.35;;
30173;SDS011;16985;50.814;8.530;2023-08-31T09:21:47;5.07;;;3.15;;
30173;SDS011;16985;50.814;8.530;2023-08-31T09:24:14;5.85;;;2.97;;
30173;SDS011;16985;50.814;8.530;2023-08-31T09:26:47;3.92;;;2.33;;
30173;SDS011;16985;50.814;8.530;2023-08-31T09:29:23;6.47;;;2.60;;
30173;SDS011;16985;50.814;8.530;2023-08-31T09:31:50;4.53;;;2.35;;
30173;SDS011;16985;50.814;8.530;2023-08-31T09:34:16;4.78;;;2.45;;
30173;SDS011;16985;50.814;8.530;2023-08-31T09:36:43;5.28;;;3.15;;
30173;SDS011;16985;50.814;8.530;2023-08-31T09:39:09;4.20;;;2.33;;
30173;SDS011;16985;50.814;8.530;2023-08-31T09:41:52;7.72;;;2.08;;
30173;SDS011;16985;50.814;8.530;2023-08-31T09:44:19;7.55;;;2.47;;
30173;SDS011;16985;50.814;8.530;2023-08-31T09:46:46;2.75;;;1.90;;
30173;SDS011;16985;50.814;8.530;2023-08-31T09:49:15;6.38;;;2.40;;
30173;SDS011;16985;50.814;8.530;2023-08-31T09:51:44;4.70;;;2.00;;
30173;SDS011;16985;50.814;8.530;2023-08-31T09:54:14;3.22;;;2.22;;
30173;SDS011;16985;50.814;8.530;2023-08-31T09:56:47;2.92;;;1.92;;
30173;SDS011;16985;50.814;8.530;2023-08-31T09:59:14;2.28;;;1.88;;
30173;SDS011;16985;50.814;8.530;2023-08-31T10:01:41;2.90;;;1.98;;
30173;SDS011;16985;50.814;8.530;2023-08-31T10:04:10;5.85;;;1.90;;
30173;SDS011;16985;50.814;8.530;2023-08-31T10:06:40;3.72;;;1.52;;
30173;SDS011;16985;50.814;8.530;2023-08-31T10:09:07;3.08;;;1.70;;
30173;SDS011;16985;50.814;8.530;2023-08-31T10:11:39;3.15;;;1.63;;
30173;SDS011;16985;50.814;8.530;2023-08-31T10:14:09;6.68;;;2.10;;
30173;SDS011;16985;50.814;8.530;2023-08-31T10:16:39;15.13;;;2.17;;
30173;SDS011;16985;50.814;8.530;2023-08-31T10:19:05;4.10;;;1.40;;
30173;SDS011;16985;50.814;8.530;2023-08-31T10:21:31;2.67;;;1.55;;
30173;SDS011;16985;50.814;8.530;2023-08-31T10:23:58;4.10;;;1.60;;
30173;SDS011;16985;50.814;8.530;2023-08-31T10:26:26;3.40;;;1.70;;
30173;SDS011;16985;50.814;8.530;2023-08-31T10:28:54;3.28;;;1.40;;
30173;SDS011;16985;50.814;8.530;2023-08-31T10:31:21;5.35;;;1.40;;
30173;SDS011;16985;50.814;8.530;2023-08-31T10:41:53;2.67;;;1.30;;
30173;SDS011;16985;50.814;8.530;2023-08-31T10:44:22;4.03;;;1.70;;
30173;SDS011;16985;50.814;8.530;2023-08-31T10:46:52;1.77;;;1.10;;
30173;SDS011;16985;50.814;8.530;2023-08-31T10:49:20;2.78;;;1.10;;
30173;SDS011;16985;50.814;8.530;2023-08-31T10:54:26;3.88;;;1.13;;
30173;SDS011;16985;50.814;8.530;2023-08-31T10:59:26;3.25;;;1.35;;
30173;SDS011;16985;50.814;8.530;2023-08-31T11:02:08;4.57;;;1.25;;
30173;SDS011;16985;50.814;8.530;2023-08-31T11:04:52;4.60;;;1.15;;
30173;SDS011;16985;50.814;8.530;2023-08-31T11:07:30;2.58;;;1.25;;
30173;SDS011;16985;50.814;8.530;2023-08-31T11:12:44;2.20;;;1.13;;
30173;SDS011;16985;50.814;8.530;2023-08-31T11:15:22;3.28;;;1.38;;
30173;SDS011;16985;50.814;8.530;2023-08-31T11:17:55;3.05;;;1.45;;
30173;SDS011;16985;50.814;8.530;2023-08-31T11:20:21;5.22;;;1.38;;
30173;SDS011;16985;50.814;8.530;2023-08-31T11:22:53;4.10;;;1.55;;
30173;SDS011;16985;50.814;8.530;2023-08-31T11:25:19;2.80;;;1.20;;
30173;SDS011;16985;50.814;8.530;2023-08-31T11:27:57;5.40;;;1.55;;
30173;SDS011;16985;50.814;8.530;2023-08-31T11:30:32;4.72;;;1.35;;
30173;SDS011;16985;50.814;8.530;2023-08-31T11:33:03;2.42;;;1.17;;
30173;SDS011;16985;50.814;8.530;2023-08-31T11:35:38;6.93;;;1.92;;
30173;SDS011;16985;50.814;8.530;2023-08-31T11:38:11;2.85;;;1.52;;
30173;SDS011;16985;50.814;8.530;2023-08-31T11:40:37;5.95;;;2.10;;
30173;SDS011;16985;50.814;8.530;2023-08-31T11:43:04;3.45;;;1.35;;
30173;SDS011;16985;50.814;8.530;2023-08-31T11:47:57;3.17;;;1.38;;
30173;SDS011;16985;50.814;8.530;2023-08-31T11:50:23;2.50;;;1.23;;
30173;SDS011;16985;50.814;8.530;2023-08-31T11:52:50;5.78;;;1.35;;
30173;SDS011;16985;50.814;8.530;2023-08-31T11:55:18;2.47;;;1.27;;
30173;SDS011;16985;50.814;8.530;2023-08-31T11:57:48;5.57;;;1.40;;
30173;SDS011;16985;50.814;8.530;2023-08-31T12:00:19;4.18;;;1.80;;
30173;SDS011;16985;50.814;8.530;2023-08-31T12:03:01;3.97;;;1.15;;
30173;SDS011;16985;50.814;8.530;2023-08-31T12:05:29;3.60;;;1.05;;
30173;SDS011;16985;50.814;8.530;2023-08-31T12:08:14;3.33;;;1.30;;
30173;SDS011;16985;50.814;8.530;2023-08-31T12:10:43;5.38;;;1.92;;
30173;SDS011;16985;50.814;8.530;2023-08-31T12:13:09;5.15;;;1.42;;
30173;SDS011;16985;50.814;8.530;2023-08-31T12:15:37;4.93;;;1.45;;
30173;SDS011;16985;50.814;8.530;2023-08-31T12:18:10;2.30;;;1.30;;
30173;SDS011;16985;50.814;8.530;2023-08-31T12:20:47;2.10;;;1.23;;
30173;SDS011;16985;50.814;8.530;2023-08-31T12:23:16;2.20;;;1.10;;
30173;SDS011;16985;50.814;8.530;2023-08-31T12:25:48;6.32;;;1.30;;
30173;SDS011;16985;50.814;8.530;2023-08-31T12:28:18;2.65;;;1.02;;
30173;SDS011;16985;50.814;8.530;2023-08-31T12:33:19;2.53;;;1.30;;
30173;SDS011;16985;50.814;8.530;2023-08-31T12:35:46;2.78;;;1.45;;
30173;SDS011;16985;50.814;8.530;2023-08-31T12:38:12;1.55;;;0.85;;
30173;SDS011;16985;50.814;8.530;2023-08-31T12:40:38;2.17;;;1.25;;
30173;SDS011;16985;50.814;8.530;2023-08-31T12:43:04;2.00;;;1.10;;
30173;SDS011;16985;50.814;8.530;2023-08-31T12:45:30;4.20;;;1.23;;
30173;SDS011;16985;50.814;8.530;2023-08-31T12:47:56;4.07;;;1.30;;
30173;SDS011;16985;50.814;8.530;2023-08-31T12:50:22;6.13;;;1.45;;
30173;SDS011;16985;50.814;8.530;2023-08-31T12:52:48;2.97;;;1.48;;
30173;SDS011;16985;50.814;8.530;2023-08-31T12:55:14;3.35;;;1.42;;
30173;SDS011;16985;50.814;8.530;2023-08-31T12:57:41;3.70;;;1.33;;
30173;SDS011;16985;50.814;8.530;2023-08-31T13:00:08;4.07;;;1.50;;
30173;SDS011;16985;50.814;8.530;2023-08-31T13:02:37;5.57;;;1.25;;
30173;SDS011;16985;50.814;8.530;2023-08-31T13:05:04;2.15;;;1.20;;
30173;SDS011;16985;50.814;8.530;2023-08-31T13:07:31;4.22;;;1.50;;
30173;SDS011;16985;50.814;8.530;2023-08-31T13:10:00;3.05;;;1.10;;
30173;SDS011;16985;50.814;8.530;2023-08-31T13:12:29;2.47;;;1.23;;
30173;SDS011;16985;50.814;8.530;2023-08-31T13:14:56;3.05;;;1.40;;
30173;SDS011;16985;50.814;8.530;2023-08-31T13:17:23;1.92;;;1.10;;
30173;SDS011;16985;50.814;8.530;2023-08-31T13:19:52;3.60;;;1.25;;
30173;SDS011;16985;50.814;8.530;2023-08-31T13:22:19;4.28;;;0.90;;
30173;SDS011;16985;50.814;8.530;2023-08-31T13:24:45;3.10;;;1.23;;
30173;SDS011;16985;50.814;8.530;2023-08-31T13:27:11;3.17;;;1.45;;
30173;SDS011;16985;50.814;8.530;2023-08-31T13:29:38;4.53;;;2.70;;
30173;SDS011;16985;50.814;8.530;2023-08-31T13:32:04;1.52;;;1.17;;
30173;SDS011;16985;50.814;8.530;2023-08-31T13:34:32;2.22;;;1.10;;
30173;SDS011;16985;50.814;8.530;2023-08-31T13:36:58;1.85;;;1.00;;
30173;SDS011;16985;50.814;8.530;2023-08-31T13:39:25;3.67;;;1.40;;
30173;SDS011;16985;50.814;8.530;2023-08-31T13:41:51;1.85;;;0.90;;
30173;SDS011;16985;50.814;8.530;2023-08-31T13:44:18;2.35;;;0.90;;
30173;SDS011;16985;50.814;8.530;2023-08-31T13:46:48;5.80;;;1.95;;
30173;SDS011;16985;50.814;8.530;2023-08-31T13:49:14;1.98;;;1.10;;
30173;SDS011;16985;50.814;8.530;2023-08-31T13:51:41;2.33;;;1.20;;
30173;SDS011;16985;50.814;8.530;2023-08-31T13:54:07;3.35;;;1.50;;
30173;SDS011;16985;50.814;8.530;2023-08-31T13:56:33;3.08;;;1.42;;
30173;SDS011;16985;50.814;8.530;2023-08-31T13:58:59;3.58;;;1.40;;
30173;SDS011;16985;50.814;8.530;2023-08-31T14:01:25;3.65;;;1.45;;
30173;SDS011;16985;50.814;8.530;2023-08-31T14:03:51;5.05;;;1.60;;
30173;SDS011;16985;50.814;8.530;2023-08-31T14:06:18;1.80;;;1.25;;
30173;SDS011;16985;50.814;8.530;2023-08-31T14:08:44;3.13;;;1.58;;
30173;SDS011;16985;50.814;8.530;2023-08-31T14:11:10;4.93;;;1.50;;
30173;SDS011;16985;50.814;8.530;2023-08-31T14:13:36;3.25;;;1.48;;
30173;SDS011;16985;50.814;8.530;2023-08-31T14:16:02;3.45;;;1.40;;
30173;SDS011;16985;50.814;8.530;2023-08-31T14:18:28;3.53;;;1.83;;
30173;SDS011;16985;50.814;8.530;2023-08-31T14:20:56;4.57;;;1.67;;
30173;SDS011;16985;50.814;8.530;2023-08-31T14:23:24;1.77;;;1.30;;
30173;SDS011;16985;50.814;8.530;2023-08-31T14:25:50;1.70;;;1.35;;
30173;SDS011;16985;50.814;8.530;2023-08-31T14:28:16;2.13;;;0.93;;
30173;SDS011;16985;50.814;8.530;2023-08-31T14:30:41;5.53;;;1.98;;
30173;SDS011;16985;50.814;8.530;2023-08-31T14:33:07;2.25;;;1.30;;
30173;SDS011;16985;50.814;8.530;2023-08-31T14:35:42;2.50;;;1.58;;
30173;SDS011;16985;50.814;8.530;2023-08-31T14:38:10;1.75;;;1.10;;
30173;SDS011;16985;50.814;8.530;2023-08-31T14:40:40;4.88;;;1.67;;
30173;SDS011;16985;50.814;8.530;2023-08-31T14:43:07;3.97;;;1.38;;
30173;SDS011;16985;50.814;8.530;2023-08-31T14:45:33;4.63;;;1.55;;
30173;SDS011;16985;50.814;8.530;2023-08-31T14:47:58;3.03;;;1.50;;
30173;SDS011;16985;50.814;8.530;2023-08-31T14:50:24;8.45;;;1.80;;
30173;SDS011;16985;50.814;8.530;2023-08-31T14:52:50;7.95;;;1.88;;
30173;SDS011;16985;50.814;8.530;2023-08-31T14:55:16;3.55;;;1.38;;
30173;SDS011;16985;50.814;8.530;2023-08-31T14:57:41;4.45;;;1.73;;
30173;SDS011;16985;50.814;8.530;2023-08-31T15:00:08;1.92;;;1.20;;
30173;SDS011;16985;50.814;8.530;2023-08-31T15:02:34;3.13;;;1.52;;
30173;SDS011;16985;50.814;8.530;2023-08-31T15:05:00;4.80;;;1.65;;
30173;SDS011;16985;50.814;8.530;2023-08-31T15:07:26;2.55;;;1.20;;
30173;SDS011;16985;50.814;8.530;2023-08-31T15:09:52;3.60;;;1.50;;
30173;SDS011;16985;50.814;8.530;2023-08-31T15:12:18;3.42;;;1.65;;
30173;SDS011;16985;50.814;8.530;2023-08-31T15:14:44;1.90;;;1.30;;
30173;SDS011;16985;50.814;8.530;2023-08-31T15:17:10;2.65;;;1.42;;
30173;SDS011;16985;50.814;8.530;2023-08-31T15:19:36;5.80;;;1.60;;